Terminal Aerodrome Forecast
Issued by NWS

Home | Current Version | Previous Version | Graphics & Text | Print | Product List | Glossary On
Versions: 1 2 3 4 5 6 7 8 9
960
FTUS43 KLSX 221129
TAFSUS
TAF
KSUS 221129Z 2212/2312 04010G20KT P6SM -SHRA OVC040
      TEMPO 2212/2213 2SM TSRA BKN010CB
     FM221400 03011G18KT P6SM -SHRA OVC025
     FM221900 03013G20KT P6SM VCSH OVC045
     FM230000 02011KT P6SM OVC070
     FM230600 01007KT P6SM SCT100=

USA.gov is the U.S. government's official web portal to all federal, state and local government web resources and services.